Time;durP1;ratioP1;P1;durP2;ratioP2;P2;SDS_P1;SDS_P2;PMS_P1;PMS_P2;Temp;Humidity;BMP_temperature;BMP_pressure;BME280_temperature;BME280_humidity;BME280_pressure;Samples;Min_cycle;Max_cycle;Signal;HPM_P1;HPM_P2
2023/03/15 00:05:15;;;;;;;6.97;2.30;;;;;;;2.81;100.00;100125.78;20774580;28;20103;-68
2023/03/15 00:15:17;;;;;;;5.45;1.73;;;;;;;2.53;100.00;100150.44;20780787;28;20053;-68
2023/03/15 00:25:18;;;;;;;8.27;2.92;;;;;;;2.27;100.00;100163.88;20777067;28;20061;-68
2023/03/15 00:35:19;;;;;;;6.72;1.52;;;;;;;2.14;100.00;100180.03;20775831;28;20046;-68
2023/03/15 00:45:20;;;;;;;6.07;1.58;;;;;;;2.02;100.00;100195.38;20780142;28;20515;-68
2023/03/15 00:55:21;;;;;;;5.15;1.70;;;;;;;2.00;100.00;100208.22;20784005;28;20506;-67
2023/03/15 01:05:23;;;;;;;4.05;1.58;;;;;;;1.84;100.00;100207.97;20768911;28;20104;-67
2023/03/15 01:15:24;;;;;;;7.03;1.45;;;;;;;1.69;100.00;100214.63;20773685;28;20502;-68
2023/03/15 01:25:25;;;;;;;5.65;1.60;;;;;;;1.48;100.00;100209.94;20777964;28;20085;-68
2023/03/15 01:35:26;;;;;;;8.25;3.03;;;;;;;1.35;100.00;100196.81;20778319;28;20069;-70
2023/03/15 01:45:28;;;;;;;7.25;2.22;;;;;;;1.28;100.00;100209.56;20776528;28;20061;-69
2023/03/15 01:55:31;;;;;;;11.40;1.73;;;;;;;1.19;100.00;100221.44;20769962;28;20494;-69
2023/03/15 02:05:32;;;;;;;6.82;2.00;;;;;;;1.04;100.00;100237.47;20772950;28;20112;-69
2023/03/15 02:15:33;;;;;;;8.30;1.90;;;;;;;0.91;100.00;100257.00;20774873;28;20080;-70
2023/03/15 02:25:35;;;;;;;7.63;2.38;;;;;;;0.86;100.00;100261.16;20774743;28;20201;-70
2023/03/15 02:35:36;;;;;;;14.27;2.40;;;;;;;0.82;100.00;100276.53;20765919;28;20057;-70
2023/03/15 02:45:37;;;;;;;5.13;2.15;;;;;;;0.75;100.00;100293.56;20767655;28;20049;-68
2023/03/15 02:55:39;;;;;;;9.70;2.30;;;;;;;0.64;100.00;100303.63;20768471;28;20122;-68
2023/03/15 03:05:40;;;;;;;7.32;2.10;;;;;;;0.62;100.00;100315.59;20769007;28;20485;-68
2023/03/15 03:15:44;;;;;;;7.45;2.92;;;;;;;0.54;100.00;100319.72;20769208;28;20173;-68
2023/03/15 03:25:45;;;;;;;8.00;3.10;;;;;;;0.44;100.00;100325.50;20763226;28;20473;-68
2023/03/15 03:35:46;;;;;;;10.43;2.75;;;;;;;0.27;100.00;100345.69;20764609;28;20107;-69
2023/03/15 03:45:48;;;;;;;7.90;2.90;;;;;;;0.33;100.00;100352.69;20767082;28;20068;-69
2023/03/15 03:55:49;;;;;;;7.68;3.78;;;;;;;0.34;100.00;100362.16;20770225;28;20453;-69
2023/03/15 04:05:51;;;;;;;8.38;3.65;;;;;;;0.37;100.00;100354.50;20760493;28;20690;-69
2023/03/15 04:15:56;;;;;;;10.50;3.92;;;;;;;0.45;100.00;100358.13;20761391;28;20049;-70
2023/03/15 04:25:58;;;;;;;12.25;3.95;;;;;;;0.47;100.00;100377.94;20766019;28;20127;-69
2023/03/15 04:36:01;;;;;;;13.75;4.28;;;;;;;0.35;100.00;100384.50;20765784;28;20096;-69
2023/03/15 04:46:02;;;;;;;15.07;4.50;;;;;;;0.34;100.00;100377.63;20763457;28;20046;-69
2023/03/15 04:56:04;;;;;;;14.80;4.03;;;;;;;0.32;100.00;100392.16;20772292;28;20054;-70
2023/03/15 05:06:06;;;;;;;15.27;4.63;;;;;;;0.32;100.00;100392.16;20776637;28;20065;-70
2023/03/15 05:16:08;;;;;;;13.38;4.53;;;;;;;0.38;100.00;100400.00;20777990;28;20054;-70
2023/03/15 05:26:09;;;;;;;14.63;5.80;;;;;;;0.37;100.00;100406.00;20782808;28;20049;-72
2023/03/15 05:36:13;;;;;;;21.80;6.55;;;;;;;0.50;100.00;100408.06;20769775;28;20045;-72
2023/03/15 05:46:14;;;;;;;14.40;6.03;;;;;;;0.65;100.00;100411.00;20765567;28;20088;-72
2023/03/15 05:56:16;;;;;;;19.83;5.57;;;;;;;0.66;100.00;100428.22;20769442;28;20053;-71
2023/03/15 06:06:17;;;;;;;17.42;5.43;;;;;;;0.68;100.00;100438.56;20776599;28;20053;-70
2023/03/15 06:16:18;;;;;;;14.18;5.70;;;;;;;0.67;100.00;100442.84;20774668;28;20049;-70
2023/03/15 06:26:20;;;;;;;15.85;5.35;;;;;;;0.82;100.00;100451.81;20765829;28;20141;-70
2023/03/15 06:36:23;;;;;;;19.27;6.38;;;;;;;0.91;100.00;100467.47;20767309;28;20050;-69
2023/03/15 06:46:25;;;;;;;16.55;6.15;;;;;;;1.13;100.00;100474.00;20771877;28;20060;-69
2023/03/15 06:56:26;;;;;;;18.65;5.35;;;;;;;1.51;100.00;100490.38;20770080;28;20065;-69
2023/03/15 07:06:28;;;;;;;12.75;4.97;;;;;;;1.96;100.00;100487.88;20764709;28;20112;-69
2023/03/15 07:16:29;;;;;;;12.93;5.43;;;;;;;2.14;100.00;100482.22;20762847;28;20050;-69
2023/03/15 07:26:30;;;;;;;14.43;5.20;;;;;;;2.55;100.00;100495.06;20756436;28;20691;-68
2023/03/15 07:36:32;;;;;;;16.90;5.55;;;;;;;2.86;100.00;100504.22;20745757;28;20627;-68
2023/03/15 07:46:33;;;;;;;10.23;3.90;;;;;;;3.13;100.00;100503.81;20737315;28;20057;-68
2023/03/15 07:56:34;;;;;;;14.90;3.92;;;;;;;3.33;100.00;100496.34;20739633;28;20392;-69
2023/03/15 08:06:35;;;;;;;9.90;3.65;;;;;;;3.54;100.00;100500.97;20740527;28;20049;-68
2023/03/15 08:16:37;;;;;;;12.00;3.30;;;;;;;3.84;100.00;100511.75;20741723;28;20050;-68
2023/03/15 08:26:38;;;;;;;12.75;4.13;;;;;;;4.24;100.00;100521.75;20754370;28;20152;-67
2023/03/15 08:36:40;;;;;;;9.60;3.40;;;;;;;4.38;100.00;100527.97;20771110;28;20105;-70
2023/03/15 08:46:41;;;;;;;10.50;4.05;;;;;;;4.68;100.00;100524.81;20776270;28;20411;-71
2023/03/15 08:56:43;;;;;;;10.90;3.95;;;;;;;4.72;100.00;100541.28;20774101;28;20103;-70
2023/03/15 09:06:45;;;;;;;9.10;4.00;;;;;;;4.78;100.00;100537.03;20781796;28;20061;-71
2023/03/15 09:16:47;;;;;;;11.00;3.30;;;;;;;5.48;100.00;100533.31;20779966;28;20391;-71
2023/03/15 09:26:48;;;;;;;6.72;2.63;;;;;;;5.47;100.00;100529.84;20769549;28;20503;-69
2023/03/15 09:36:51;;;;;;;8.90;2.20;;;;;;;5.64;100.00;100533.41;20771899;28;20041;-66
2023/03/15 09:46:53;;;;;;;7.70;2.53;;;;;;;5.39;100.00;100545.34;20773575;28;20077;-66
2023/03/15 09:56:54;;;;;;;7.05;2.60;;;;;;;5.89;100.00;100552.63;20774933;28;20143;-66
2023/03/15 10:06:55;;;;;;;5.43;1.40;;;;;;;5.88;98.25;100563.88;20767986;28;20053;-69
2023/03/15 10:16:57;;;;;;;7.43;1.90;;;;;;;5.97;100.00;100567.41;20769702;28;20046;-69
2023/03/15 10:26:58;;;;;;;4.43;1.08;;;;;;;5.47;100.00;100588.72;20770786;28;20124;-69
2023/03/15 10:36:59;;;;;;;5.05;1.08;;;;;;;4.77;100.00;100620.91;20769341;28;20498;-69
2023/03/15 10:47:00;;;;;;;6.20;1.45;;;;;;;3.83;100.00;100621.41;20769196;28;20045;-71
2023/03/15 10:57:13;;;;;;;7.22;1.80;;;;;;;3.88;100.00;100607.63;20765660;28;20458;-71
2023/03/15 11:07:14;;;;;;;5.22;1.83;;;;;;;4.43;100.00;100598.88;20766401;28;20111;-70
2023/03/15 11:17:15;;;;;;;8.38;1.90;;;;;;;4.75;100.00;100599.28;20752524;28;20053;-68
2023/03/15 11:27:16;;;;;;;7.85;1.90;;;;;;;5.35;100.00;100584.25;20769965;28;20556;-68
2023/03/15 11:37:18;;;;;;;7.85;1.73;;;;;;;5.41;100.00;100594.69;20759403;28;20557;-67
2023/03/15 11:47:19;;;;;;;4.68;1.83;;;;;;;5.46;100.00;100592.13;20759438;28;20058;-69
2023/03/15 11:57:20;;;;;;;5.82;1.52;;;;;;;6.00;100.00;100575.25;20768437;28;20165;-69
2023/03/15 12:07:23;;;;;;;7.05;1.85;;;;;;;6.77;100.00;100574.69;20781246;28;20112;-69
2023/03/15 12:17:27;;;;;;;4.60;1.60;;;;;;;6.72;100.00;100580.75;20774685;28;20060;-68
2023/03/15 12:27:28;;;;;;;5.63;2.00;;;;;;;6.60;100.00;100579.84;20772291;28;20066;-71
2023/03/15 12:37:30;;;;;;;5.25;1.80;;;;;;;6.72;100.00;100589.44;20777540;28;20498;-67
2023/03/15 12:47:31;;;;;;;6.50;2.22;;;;;;;6.51;100.00;100594.53;20777973;28;20104;-67
2023/03/15 12:57:32;;;;;;;3.88;1.70;;;;;;;6.26;100.00;100589.25;20783096;28;20064;-67
2023/03/15 13:07:34;;;;;;;5.25;2.42;;;;;;;6.60;100.00;100589.38;20768893;28;20081;-68
2023/03/15 13:17:51;;;;;;;5.07;2.28;;;;;;;6.43;100.00;100574.59;20771473;28;20054;-67
2023/03/15 13:27:52;;;;;;;4.97;2.63;;;;;;;7.01;100.00;100571.28;20772620;28;20101;-67
2023/03/15 13:37:53;;;;;;;5.25;2.30;;;;;;;7.39;100.00;100568.69;20777377;28;20057;-67
2023/03/15 13:47:54;;;;;;;5.18;2.42;;;;;;;7.15;100.00;100563.47;20776292;28;20557;-67
2023/03/15 13:57:56;;;;;;;6.15;2.75;;;;;;;7.17;100.00;100561.72;20767088;28;20050;-67
2023/03/15 14:07:57;;;;;;;4.70;2.35;;;;;;;7.38;100.00;100561.75;20767134;28;20050;-66
2023/03/15 14:17:59;;;;;;;5.43;2.35;;;;;;;7.49;100.00;100548.72;20773097;28;20049;-67
2023/03/15 14:28:01;;;;;;;4.30;2.10;;;;;;;7.84;100.00;100539.97;20773162;28;20198;-67
2023/03/15 14:38:02;;;;;;;4.90;2.55;;;;;;;7.96;100.00;100539.97;20765574;28;20145;-66
2023/03/15 14:48:04;;;;;;;4.97;1.98;;;;;;;8.04;100.00;100547.72;20762813;28;20322;-67
2023/03/15 14:58:05;;;;;;;4.47;2.33;;;;;;;7.86;100.00;100553.88;20768259;28;20065;-67
2023/03/15 15:08:06;;;;;;;4.53;2.30;;;;;;;7.53;100.00;100583.47;20765580;28;20072;-66
2023/03/15 15:18:08;;;;;;;4.53;2.13;;;;;;;7.40;100.00;100582.59;20761666;28;20049;-66
2023/03/15 15:38:47;;;;;;;6.40;2.30;;;;;;;7.65;100.00;100594.72;20822826;28;20201;-81
2023/03/15 15:48:48;;;;;;;6.43;2.05;;;;;;;7.62;100.00;100584.31;20856219;28;20514;-80
2023/03/15 15:58:49;;;;;;;5.45;2.20;;;;;;;7.51;100.00;100593.00;20851357;28;20049;-80
2023/03/15 16:08:51;;;;;;;3.72;1.50;;;;;;;7.43;100.00;100596.50;20847872;28;20050;-80
2023/03/15 16:18:52;;;;;;;2.78;1.27;;;;;;;7.11;100.00;100611.22;20838556;28;20096;-80
2023/03/15 16:28:53;;;;;;;4.55;1.70;;;;;;;6.94;100.00;100612.03;20850008;28;20406;-81
2023/03/15 16:38:55;;;;;;;2.13;1.13;;;;;;;6.73;100.00;100611.97;20851083;28;20049;-81
2023/03/15 16:48:57;;;;;;;3.38;1.45;;;;;;;6.60;100.00;100633.59;20871469;28;20084;-81
2023/03/15 16:58:58;;;;;;;3.25;1.40;;;;;;;6.49;100.00;100645.69;20854804;28;20069;-80
2023/03/15 17:09:00;;;;;;;2.90;1.17;;;;;;;6.27;100.00;100653.38;20851491;28;20037;-81
2023/03/15 17:19:01;;;;;;;3.35;1.30;;;;;;;6.03;100.00;100664.50;20847637;28;20053;-80
2023/03/15 17:29:02;;;;;;;6.10;3.45;;;;;;;5.84;100.00;100679.03;20840681;28;20046;-80
2023/03/15 17:39:03;;;;;;;11.93;3.88;;;;;;;5.57;100.00;100679.69;20834043;28;20055;-81
2023/03/15 17:49:08;;;;;;;15.35;10.15;;;;;;;5.30;100.00;100690.66;20823692;28;20613;-80
2023/03/15 17:59:10;;;;;;;13.55;6.55;;;;;;;5.16;100.00;100705.22;20844703;28;20071;-79
2023/03/15 18:09:11;;;;;;;14.93;7.00;;;;;;;5.12;100.00;100709.50;20841398;28;20072;-79
2023/03/15 18:19:12;;;;;;;23.17;13.23;;;;;;;4.95;100.00;100729.22;20849411;28;20060;-78
2023/03/15 18:29:14;;;;;;;9.55;4.32;;;;;;;4.66;100.00;100730.56;20843339;28;20076;-78
2023/03/15 18:39:15;;;;;;;10.77;4.82;;;;;;;4.47;100.00;100745.88;20833081;28;20050;-78
2023/03/15 18:49:16;;;;;;;6.80;3.65;;;;;;;4.27;100.00;100750.75;20808802;28;20045;-79
2023/03/15 18:59:18;;;;;;;10.77;5.60;;;;;;;4.17;100.00;100733.31;20830155;28;20064;-78
2023/03/15 19:09:25;;;;;;;11.68;5.25;;;;;;;4.01;100.00;100745.13;20848866;28;20045;-78
2023/03/15 19:19:28;;;;;;;9.50;4.93;;;;;;;3.81;100.00;100746.53;20827369;28;20038;-78
2023/03/15 19:29:29;;;;;;;8.32;4.82;;;;;;;3.71;100.00;100753.28;20823041;28;20119;-78
2023/03/15 19:39:30;;;;;;;12.15;5.35;;;;;;;3.54;100.00;100760.72;20826268;28;20045;-79
2023/03/15 19:49:31;;;;;;;10.82;5.43;;;;;;;3.44;100.00;100769.16;20856621;28;20115;-79
2023/03/15 19:59:38;;;;;;;8.68;4.82;;;;;;;3.24;100.00;100779.13;20834313;28;20053;-78
2023/03/15 20:09:40;;;;;;;8.82;4.60;;;;;;;3.09;100.00;100769.34;20845301;28;20467;-79
2023/03/15 20:19:41;;;;;;;10.07;4.85;;;;;;;2.94;100.00;100787.13;20838458;28;20058;-80
2023/03/15 20:29:43;;;;;;;8.65;5.32;;;;;;;2.78;100.00;100788.53;20831855;28;20514;-78
2023/03/15 20:39:44;;;;;;;13.43;6.35;;;;;;;2.61;100.00;100791.56;20853848;28;20107;-79
2023/03/15 20:49:45;;;;;;;15.95;9.82;;;;;;;2.47;100.00;100786.06;20832636;28;20056;-80
2023/03/15 20:59:46;;;;;;;17.55;9.85;;;;;;;2.38;100.00;100797.06;20826757;28;20108;-78
2023/03/15 21:09:48;;;;;;;19.50;11.93;;;;;;;2.22;100.00;100801.00;20829473;28;20049;-78
2023/03/15 21:19:49;;;;;;;20.55;12.00;;;;;;;2.05;100.00;100797.97;20842200;28;20060;-78
2023/03/15 21:29:51;;;;;;;21.30;11.15;;;;;;;2.01;100.00;100810.78;20846931;28;20100;-79
2023/03/15 21:39:52;;;;;;;21.67;13.40;;;;;;;1.87;100.00;100810.44;20823422;28;20091;-78
2023/03/15 21:49:54;;;;;;;24.90;12.90;;;;;;;1.79;100.00;100805.06;20829228;28;20054;-79
2023/03/15 21:59:55;;;;;;;29.45;15.50;;;;;;;1.69;100.00;100808.25;20823313;28;20049;-78
2023/03/15 22:09:56;;;;;;;23.17;14.18;;;;;;;1.57;100.00;100807.91;20825342;28;20103;-78
2023/03/15 22:19:58;;;;;;;23.92;15.70;;;;;;;1.46;100.00;100805.03;20842790;28;20092;-78
2023/03/15 22:29:59;;;;;;;16.48;9.32;;;;;;;1.33;100.00;100805.53;20819512;28;20046;-79
2023/03/15 22:40:01;;;;;;;17.77;9.07;;;;;;;1.21;100.00;100800.03;20823158;28;20049;-79
2023/03/15 22:50:02;;;;;;;17.50;9.63;;;;;;;1.14;100.00;100796.38;20831580;28;20042;-78
2023/03/15 23:00:06;;;;;;;14.40;8.45;;;;;;;0.96;100.00;100795.88;20847034;28;20049;-79
2023/03/15 23:10:07;;;;;;;20.73;12.17;;;;;;;0.88;100.00;100792.19;20847873;28;20498;-79
2023/03/15 23:20:09;;;;;;;19.15;11.50;;;;;;;0.71;100.00;100792.53;20833530;28;20064;-78
2023/03/15 23:30:10;;;;;;;19.48;11.63;;;;;;;0.60;100.00;100790.47;20817313;28;20053;-79
2023/03/15 23:40:14;;;;;;;31.80;18.10;;;;;;;0.54;100.00;100785.16;20819968;28;20045;-78
2023/03/15 23:50:16;;;;;;;27.97;16.87;;;;;;;0.51;100.00;100781.63;20834054;28;20625;-79
